Time;durP1;ratioP1;P1;durP2;ratioP2;P2;SDS_P1;SDS_P2;PMS_P1;PMS_P2;Temp;Humidity;BMP_temperature;BMP_pressure;BME280_temperature;BME280_humidity;BME280_pressure;Samples;Min_cycle;Max_cycle;Signal;HPM_P1;HPM_P2
2023/12/11 00:00:45;;;;;;;19.98;10.70;;;;;;;3.13;65.40;98976.72;4505218;31;35118;-86
2023/12/11 00:03:13;;;;;;;30.67;22.73;;;;;;;3.47;64.80;98986.56;4496168;31;34246;-85
2023/12/11 00:05:41;;;;;;;25.88;12.43;;;;;;;3.03;64.85;98988.31;4507621;31;33313;-86
2023/12/11 00:08:09;;;;;;;34.25;26.10;;;;;;;3.38;64.00;98976.00;4490118;31;33913;-86
2023/12/11 00:10:37;;;;;;;33.70;25.67;;;;;;;3.09;64.40;98973.16;4504537;31;32572;-86
2023/12/11 00:13:04;;;;;;;31.75;13.65;;;;;;;3.06;64.39;98974.72;4506229;31;34185;-84
2023/12/11 00:15:31;;;;;;;23.50;12.48;;;;;;;3.11;64.54;98968.12;4501493;31;33053;-85
2023/12/11 00:17:59;;;;;;;26.75;13.15;;;;;;;3.26;63.78;98960.12;4509736;31;34133;-86
2023/12/11 00:20:27;;;;;;;32.42;24.30;;;;;;;3.42;63.04;98958.22;4505377;31;33956;-86
2023/12/11 00:22:54;;;;;;;23.48;11.05;;;;;;;3.10;63.20;98963.78;4508487;31;34276;-85
2023/12/11 00:25:22;;;;;;;22.98;10.90;;;;;;;3.31;62.77;98956.06;4505497;31;34426;-89
2023/12/11 00:27:49;;;;;;;23.42;10.88;;;;;;;3.23;62.90;98953.22;4492253;31;34017;-85
2023/12/11 00:30:17;;;;;;;30.98;23.55;;;;;;;3.19;62.71;98938.53;4493601;31;34117;-84
2023/12/11 00:32:45;;;;;;;20.52;10.43;;;;;;;3.01;63.17;98942.97;4502589;31;33505;-87
2023/12/11 00:35:13;;;;;;;30.33;22.73;;;;;;;3.24;62.82;98936.16;4494906;31;33488;-84
2023/12/11 00:37:41;;;;;;;25.75;12.05;;;;;;;2.98;63.11;98937.72;4492094;31;34779;-86
2023/12/11 00:40:08;;;;;;;26.02;12.45;;;;;;;3.11;63.45;98939.94;4500691;31;34013;-88
2023/12/11 00:42:36;;;;;;;28.45;14.07;;;;;;;3.22;63.38;98942.91;4509533;31;34820;-85
2023/12/11 00:45:04;;;;;;;71.28;33.75;;;;;;;3.28;63.40;98933.75;4511115;31;33352;-84
2023/12/11 00:47:32;;;;;;;43.75;12.80;;;;;;;2.75;64.57;98929.13;4507547;31;33643;-86
2023/12/11 00:50:00;;;;;;;55.75;30.27;;;;;;;2.37;67.42;98939.56;4511046;31;34892;-86
2023/12/11 00:52:31;;;;;;;58.87;14.07;;;;;;;2.49;67.09;98923.81;4508076;31;34552;-85
2023/12/11 00:54:59;;;;;;;68.70;12.37;;;;;;;3.02;66.11;98914.84;4502613;31;32823;-86
2023/12/11 00:57:27;;;;;;;80.68;31.45;;;;;;;2.61;67.45;98915.78;4492625;31;32278;-88
2023/12/11 00:59:56;;;;;;;61.45;12.57;;;;;;;2.30;68.77;98929.88;4508620;31;34896;-87
2023/12/11 01:02:25;;;;;;;45.38;15.55;;;;;;;2.64;68.10;98921.88;4505462;31;33469;-86
2023/12/11 01:04:52;;;;;;;70.20;12.60;;;;;;;2.69;68.21;98929.78;4505207;31;33520;-85
2023/12/11 01:07:20;;;;;;;68.87;15.88;;;;;;;2.57;68.69;98925.00;4506721;31;33949;-85
2023/12/11 01:09:47;;;;;;;110.35;34.03;;;;;;;2.63;69.18;98924.41;4508827;31;33912;-86
2023/12/11 01:12:15;;;;;;;164.02;37.13;;;;;;;2.51;69.45;98921.34;4510122;31;33889;-86
2023/12/11 01:14:43;;;;;;;50.70;15.88;;;;;;;2.36;70.24;98936.94;4502388;31;33400;-86
2023/12/11 01:17:10;;;;;;;193.65;39.00;;;;;;;2.69;69.82;98927.22;4506443;31;33365;-86
2023/12/11 01:19:58;;;;;;;69.15;15.25;;;;;;;2.49;70.19;98935.75;4508928;31;33984;-86
2023/12/11 01:22:25;;;;;;;154.65;19.37;;;;;;;2.75;69.69;98935.13;4507488;31;34158;-86
2023/12/11 01:24:53;;;;;;;137.68;39.65;;;;;;;2.61;70.58;98938.81;4507444;31;34332;-88
2023/12/11 01:27:20;;;;;;;60.65;14.82;;;;;;;2.52;70.74;98931.63;4507039;31;34525;-86
2023/12/11 01:29:48;;;;;;;58.05;13.85;;;;;;;2.60;70.65;98924.28;4503228;31;34087;-86
2023/12/11 01:32:15;;;;;;;197.40;39.28;;;;;;;2.87;70.08;98925.34;4503119;31;33540;-85
2023/12/11 01:34:43;;;;;;;188.45;40.67;;;;;;;2.66;70.72;98921.97;4510803;31;34062;-89
2023/12/11 01:37:11;;;;;;;80.05;14.68;;;;;;;2.29;71.83;98928.13;4509363;31;34649;-87
2023/12/11 01:39:38;;;;;;;223.32;48.55;;;;;;;2.91;70.62;98909.28;4507043;31;33481;-85
2023/12/11 01:42:06;;;;;;;39.83;13.60;;;;;;;2.29;72.46;98912.78;4488889;31;32665;-89
2023/12/11 01:44:35;;;;;;;178.62;42.67;;;;;;;2.79;71.13;98890.91;4512249;31;33375;-86
2023/12/11 01:47:03;;;;;;;31.27;14.75;;;;;;;2.54;71.62;98890.75;4508240;31;34559;-86
2023/12/11 01:49:30;;;;;;;48.28;14.70;;;;;;;2.75;71.45;98883.91;4501983;31;34598;-86
2023/12/11 01:51:59;;;;;;;73.03;15.50;;;;;;;2.46;72.49;98893.00;4484331;31;34630;-86
2023/12/11 01:54:26;;;;;;;49.70;15.27;;;;;;;2.81;71.35;98884.16;4504531;31;33162;-89
2023/12/11 01:56:54;;;;;;;59.80;15.43;;;;;;;2.45;72.57;98888.69;4494110;31;33688;-84
2023/12/11 01:59:22;;;;;;;52.83;15.25;;;;;;;2.39;72.97;98888.47;4485199;31;32907;-86
2023/12/11 02:01:49;;;;;;;95.40;17.08;;;;;;;2.40;72.74;98877.41;4511750;31;32478;-86
2023/12/11 02:04:17;;;;;;;84.00;16.70;;;;;;;1.72;76.16;98885.66;4501016;31;33297;-86
2023/12/11 02:06:45;;;;;;;97.90;41.72;;;;;;;1.94;74.92;98878.09;4507667;31;34829;-87
2023/12/11 02:09:12;;;;;;;84.70;16.12;;;;;;;2.19;73.81;98874.84;4493829;31;33884;-86
2023/12/11 02:11:40;;;;;;;94.65;16.40;;;;;;;2.19;73.97;98868.03;4506405;31;33731;-85
2023/12/11 02:14:10;;;;;;;88.90;17.17;;;;;;;1.54;75.38;98875.50;4488657;31;33468;-84
2023/12/11 02:16:38;;;;;;;67.75;16.33;;;;;;;1.95;75.44;98873.03;4511439;31;33919;-86
2023/12/11 02:19:06;;;;;;;58.70;14.52;;;;;;;2.51;73.42;98862.50;4505234;31;34013;-88
2023/12/11 02:21:34;;;;;;;97.97;37.03;;;;;;;2.31;73.80;98865.13;4485420;31;34815;-84
2023/12/11 02:24:13;;;;;;;269.65;47.47;;;;;;;2.28;73.91;98866.69;4487562;31;33356;-85
2023/12/11 02:26:41;;;;;;;90.12;15.18;;;;;;;2.31;73.35;98872.81;4493528;31;32605;-87
2023/12/11 02:29:08;;;;;;;159.37;38.60;;;;;;;2.56;72.58;98873.78;4509175;31;33796;-87
2023/12/11 02:31:36;;;;;;;50.95;12.70;;;;;;;1.86;74.08;98877.75;4510700;31;34768;-86
2023/12/11 02:34:03;;;;;;;62.97;13.60;;;;;;;2.36;73.72;98878.97;4490109;31;32628;-86
2023/12/11 02:36:31;;;;;;;204.23;41.47;;;;;;;2.56;72.57;98871.22;4508388;31;33764;-86
2023/12/11 02:38:58;;;;;;;69.90;13.75;;;;;;;1.57;75.97;98873.09;4505155;31;33647;-86
2023/12/11 02:41:26;;;;;;;202.95;40.90;;;;;;;2.31;73.83;98849.78;4510348;31;34381;-86
2023/12/11 02:43:54;;;;;;;37.40;13.95;;;;;;;2.08;73.59;98843.72;4502882;31;33064;-88
2023/12/11 02:46:22;;;;;;;119.20;37.55;;;;;;;2.59;72.49;98835.53;4505747;31;33781;-86
2023/12/11 02:48:50;;;;;;;66.10;14.98;;;;;;;2.41;72.61;98828.84;4504592;31;35023;-89
2023/12/11 02:51:17;;;;;;;211.02;46.30;;;;;;;1.86;74.93;98815.56;4494976;31;34584;-85
2023/12/11 02:53:45;;;;;;;297.55;59.17;;;;;;;1.90;73.99;98805.50;4509391;31;33445;-87
2023/12/11 02:56:13;;;;;;;46.22;14.82;;;;;;;1.86;74.51;98806.19;4508838;31;34679;-88
2023/12/11 02:58:43;;;;;;;100.03;15.85;;;;;;;2.42;73.38;98807.59;4500902;31;35077;-85
2023/12/11 03:01:10;;;;;;;380.92;68.03;;;;;;;1.45;75.75;98823.22;4488446;31;33669;-85
2023/12/11 03:03:39;;;;;;;56.37;14.93;;;;;;;1.85;74.69;98809.53;4510009;31;34194;-88
2023/12/11 03:06:08;;;;;;;188.77;43.50;;;;;;;1.96;75.09;98809.97;4509693;31;34862;-88
2023/12/11 03:08:39;;;;;;;61.55;14.30;;;;;;;1.94;74.18;98809.94;4511351;31;33808;-85
2023/12/11 03:11:09;;;;;;;291.60;53.05;;;;;;;2.21;73.80;98806.75;4503117;31;34489;-87
2023/12/11 03:13:37;;;;;;;54.03;13.50;;;;;;;1.90;74.95;98819.97;4508900;31;34065;-85
2023/12/11 03:16:05;;;;;;;99.25;36.95;;;;;;;2.27;74.13;98812.09;4505783;31;34288;-84
2023/12/11 03:18:33;;;;;;;191.88;41.40;;;;;;;2.34;73.51;98796.16;4502936;31;34119;-86
2023/12/11 03:21:01;;;;;;;71.10;13.70;;;;;;;1.97;74.89;98811.75;4485403;31;33101;-87
2023/12/11 03:23:28;;;;;;;388.42;63.13;;;;;;;2.62;73.14;98805.81;4509509;31;33505;-86
2023/12/11 03:25:56;;;;;;;74.85;13.27;;;;;;;2.24;73.53;98799.19;4507250;31;34069;-88
2023/12/11 03:28:25;;;;;;;89.13;14.68;;;;;;;2.34;74.01;98797.84;4508031;31;34478;-86
2023/12/11 03:30:52;;;;;;;112.22;16.58;;;;;;;2.64;73.29;98808.41;4503316;31;33639;-84
2023/12/11 03:33:20;;;;;;;181.63;40.22;;;;;;;2.56;73.47;98813.22;4508620;31;33488;-89
2023/12/11 03:35:47;;;;;;;51.67;13.25;;;;;;;2.30;74.11;98807.09;4507659;31;33494;-85
2023/12/11 03:38:15;;;;;;;112.68;15.43;;;;;;;2.82;72.99;98809.09;4496401;31;34016;-85
2023/12/11 03:40:42;;;;;;;119.70;15.18;;;;;;;2.74;72.92;98807.94;4500632;31;33502;-86
2023/12/11 03:43:11;;;;;;;199.82;42.33;;;;;;;2.82;72.76;98810.78;4502042;31;33912;-86
2023/12/11 03:45:38;;;;;;;116.22;16.48;;;;;;;2.48;73.74;98801.84;4465897;31;34608;-87
2023/12/11 03:48:06;;;;;;;82.45;15.27;;;;;;;2.70;74.03;98805.22;4508371;31;33581;-84
2023/12/11 03:50:33;;;;;;;114.22;17.62;;;;;;;2.85;73.13;98813.47;4503979;31;33820;-86
2023/12/11 03:53:01;;;;;;;53.05;14.32;;;;;;;1.94;76.42;98807.38;4505841;31;33245;-86
2023/12/11 03:55:28;;;;;;;335.83;54.05;;;;;;;2.82;73.64;98813.34;4508482;31;34405;-86
2023/12/11 03:57:56;;;;;;;75.15;15.27;;;;;;;2.77;73.00;98820.00;4499690;31;34908;-85
2023/12/11 04:00:23;;;;;;;134.57;18.33;;;;;;;2.78;72.89;98822.59;4513157;31;34162;-86
2023/12/11 04:02:51;;;;;;;71.72;14.60;;;;;;;2.84;72.72;98817.72;4511072;31;34598;-87
2023/12/11 04:05:18;;;;;;;316.23;59.35;;;;;;;3.05;72.12;98833.00;4503908;31;33762;-86
2023/12/11 04:07:46;;;;;;;88.22;16.77;;;;;;;2.83;72.17;98840.69;4501552;31;33917;-85
2023/12/11 04:10:14;;;;;;;243.45;51.00;;;;;;;2.91;72.26;98829.91;4509937;31;33955;-85
2023/12/11 04:12:42;;;;;;;102.43;38.42;;;;;;;2.61;73.08;98828.75;4500513;31;34041;-89
2023/12/11 04:15:10;;;;;;;87.28;16.92;;;;;;;2.98;72.39;98819.91;4491272;31;34005;-87
2023/12/11 04:17:38;;;;;;;57.85;15.00;;;;;;;2.93;72.57;98814.63;4490970;31;35401;-86
2023/12/11 04:20:06;;;;;;;62.78;14.93;;;;;;;3.13;71.90;98805.97;4500956;31;33147;-85
2023/12/11 04:22:34;;;;;;;79.70;16.37;;;;;;;2.85;72.13;98798.97;4504711;31;33283;-86
2023/12/11 04:25:01;;;;;;;66.32;14.95;;;;;;;2.79;72.77;98795.31;4504681;31;33728;-84
2023/12/11 04:27:29;;;;;;;144.93;40.63;;;;;;;3.00;72.50;98797.81;4506079;31;34207;-85
2023/12/11 04:29:57;;;;;;;86.75;14.50;;;;;;;2.63;73.49;98796.44;4509382;31;33782;-87
2023/12/11 04:32:24;;;;;;;76.05;16.50;;;;;;;3.20;72.48;98790.84;4509450;31;33234;-85
2023/12/11 04:34:52;;;;;;;302.13;54.70;;;;;;;3.12;72.65;98794.00;4511167;31;33490;-85
2023/12/11 04:37:20;;;;;;;87.82;16.30;;;;;;;2.28;75.18;98778.03;4511052;31;34805;-88
2023/12/11 04:39:47;;;;;;;52.05;16.05;;;;;;;2.05;76.46;98771.16;4501988;31;33907;-85
2023/12/11 04:42:15;;;;;;;304.83;61.85;;;;;;;2.03;76.96;98765.97;4502088;31;34230;-85
2023/12/11 04:44:42;;;;;;;87.00;15.60;;;;;;;2.21;75.60;98770.94;4498861;31;34023;-87
2023/12/11 04:47:10;;;;;;;80.85;16.30;;;;;;;2.34;75.85;98779.94;4508591;31;34050;-88
2023/12/11 04:49:37;;;;;;;57.62;16.85;;;;;;;2.19;76.38;98772.53;4508707;31;33679;-88
2023/12/11 04:52:06;;;;;;;78.85;18.37;;;;;;;2.06;77.00;98773.75;4503683;31;34191;-85
2023/12/11 04:54:34;;;;;;;75.20;17.62;;;;;;;2.36;76.14;98786.00;4513869;31;33794;-85
2023/12/11 04:57:01;;;;;;;56.47;18.27;;;;;;;2.38;75.70;98777.56;4505451;31;34930;-85
2023/12/11 04:59:29;;;;;;;73.43;17.75;;;;;;;2.28;76.47;98774.63;4509458;31;33739;-86
2023/12/11 05:01:57;;;;;;;75.60;18.83;;;;;;;2.57;75.23;98786.81;4505571;31;33928;-85
2023/12/11 05:04:24;;;;;;;75.95;20.88;;;;;;;2.58;75.70;98785.16;4514892;31;34613;-87
2023/12/11 05:06:52;;;;;;;43.50;17.17;;;;;;;2.53;75.86;98804.56;4508466;31;32620;-86
2023/12/11 05:09:20;;;;;;;72.53;18.45;;;;;;;2.56;75.79;98799.56;4508671;31;33616;-86
2023/12/11 05:11:48;;;;;;;204.82;55.83;;;;;;;1.84;78.29;98795.03;4515142;31;33274;-86
2023/12/11 05:14:15;;;;;;;57.08;18.80;;;;;;;2.12;76.90;98803.81;4510133;31;33074;-85
2023/12/11 05:16:43;;;;;;;105.60;18.45;;;;;;;1.62;79.42;98787.28;4505402;31;34149;-86
2023/12/11 05:19:11;;;;;;;446.00;73.37;;;;;;;1.61;79.83;98775.31;4502188;31;34542;-87
2023/12/11 05:21:43;;;;;;;100.80;18.75;;;;;;;1.47;80.06;98777.28;4507934;31;33320;-87
2023/12/11 05:24:11;;;;;;;225.23;63.78;;;;;;;1.49;80.47;98785.91;4496414;31;33422;-86
2023/12/11 05:26:39;;;;;;;345.48;66.15;;;;;;;1.54;79.86;98788.63;4490223;31;34054;-88
2023/12/11 05:29:06;;;;;;;80.22;20.08;;;;;;;1.11;81.44;98786.81;4504856;31;34735;-86
2023/12/11 05:31:34;;;;;;;107.10;23.65;;;;;;;1.16;81.89;98806.59;4502407;31;33519;-88
2023/12/11 05:34:02;;;;;;;366.25;72.30;;;;;;;1.65;80.27;98805.28;4504983;31;32784;-89
2023/12/11 05:36:29;;;;;;;462.20;85.70;;;;;;;1.76;79.74;98796.37;4507632;31;33942;-85
2023/12/11 05:38:57;;;;;;;548.62;100.93;;;;;;;1.53;79.92;98794.56;4505108;31;34826;-86
2023/12/11 05:41:25;;;;;;;124.45;21.42;;;;;;;1.06;82.62;98778.06;4489950;31;32860;-88
2023/12/11 05:43:52;;;;;;;379.08;87.45;;;;;;;0.94;83.46;98758.84;4508632;31;33839;-89
2023/12/11 05:46:20;;;;;;;356.02;77.72;;;;;;;1.00;83.66;98747.16;4508765;31;34256;-87
2023/12/11 05:48:47;;;;;;;310.80;75.05;;;;;;;0.99;83.88;98735.22;4510140;31;33838;-87
2023/12/11 05:51:15;;;;;;;128.82;56.22;;;;;;;0.91;84.19;98733.22;4509267;31;33106;-87
2023/12/11 05:53:43;;;;;;;75.82;17.62;;;;;;;1.17;83.21;98758.97;4503672;31;34143;-84
2023/12/11 05:56:11;;;;;;;77.70;20.50;;;;;;;1.85;80.88;98771.19;4511765;31;32940;-84
2023/12/11 05:58:38;;;;;;;343.67;77.72;;;;;;;1.51;82.43;98770.62;4504859;31;33625;-87
2023/12/11 06:01:06;;;;;;;96.22;20.55;;;;;;;1.39;83.20;98774.41;4505244;31;33332;-85
2023/12/11 06:03:34;;;;;;;111.20;22.30;;;;;;;1.69;81.48;98790.16;4506792;31;33746;-87
2023/12/11 06:06:02;;;;;;;117.28;20.23;;;;;;;1.59;81.31;98779.47;4506656;31;34866;-85
2023/12/11 06:08:29;;;;;;;291.80;72.50;;;;;;;1.75;81.53;98778.44;4510107;31;32942;-87
2023/12/11 06:10:58;;;;;;;248.75;64.07;;;;;;;1.72;81.05;98756.19;4499973;31;32484;-84
2023/12/11 06:13:25;;;;;;;282.23;67.35;;;;;;;1.20;83.43;98764.22;4503112;31;34027;-86
2023/12/11 06:15:53;;;;;;;323.80;67.78;;;;;;;1.31;83.44;98780.00;4505652;31;33818;-85
2023/12/11 06:18:20;;;;;;;98.30;21.83;;;;;;;1.23;83.56;98777.12;4512935;31;33094;-85
2023/12/11 06:20:48;;;;;;;195.12;63.67;;;;;;;0.85;85.44;98778.84;4500333;31;33149;-85
2023/12/11 06:23:16;;;;;;;263.17;73.50;;;;;;;0.80;86.18;98808.41;4514678;31;33817;-86
2023/12/11 06:25:43;;;;;;;47.65;21.85;;;;;;;1.12;85.26;98808.97;4514380;31;33768;-88
2023/12/11 06:28:11;;;;;;;388.37;87.10;;;;;;;1.77;82.79;98833.03;4503243;31;33446;-90
2023/12/11 06:30:38;;;;;;;125.80;69.90;;;;;;;1.64;81.52;98834.22;4507133;31;33515;-85
2023/12/11 06:33:06;;;;;;;89.97;24.60;;;;;;;1.81;82.06;98840.03;4501979;31;33557;-88
2023/12/11 06:35:34;;;;;;;120.13;22.87;;;;;;;1.70;82.40;98829.34;4514006;31;34895;-85
2023/12/11 06:38:01;;;;;;;249.85;71.78;;;;;;;1.55;83.45;98832.12;4509736;31;35237;-85
2023/12/11 06:40:29;;;;;;;493.52;100.35;;;;;;;1.39;83.59;98819.50;4505766;31;33663;-85
2023/12/11 06:42:56;;;;;;;446.27;93.97;;;;;;;1.44;83.66;98813.81;4498818;31;33799;-85
2023/12/11 06:45:24;;;;;;;417.87;89.75;;;;;;;1.26;85.52;98781.50;4511785;31;33889;-84
2023/12/11 06:47:52;;;;;;;345.42;85.68;;;;;;;1.23;85.42;98784.78;4507027;31;33824;-85
2023/12/11 06:50:19;;;;;;;96.40;22.20;;;;;;;0.96;87.34;98779.34;4499274;31;33579;-85
2023/12/11 06:52:47;;;;;;;296.80;79.57;;;;;;;1.35;86.18;98785.28;4499067;31;34629;-85
2023/12/11 06:55:15;;;;;;;69.62;18.85;;;;;;;1.74;83.61;98777.56;4509328;31;33601;-85
2023/12/11 06:57:42;;;;;;;84.75;19.98;;;;;;;1.33;86.15;98774.16;4499591;31;33687;-84
2023/12/11 07:00:10;;;;;;;248.55;66.70;;;;;;;1.75;84.29;98792.09;4508827;31;33845;-85
2023/12/11 07:02:38;;;;;;;273.87;74.55;;;;;;;1.67;84.73;98801.12;4514012;31;32843;-85
2023/12/11 07:05:06;;;;;;;88.50;21.37;;;;;;;1.62;84.77;98802.59;4509573;31;34893;-90
2023/12/11 07:07:35;;;;;;;205.98;64.45;;;;;;;1.67;84.96;98785.81;4511208;31;33589;-84
2023/12/11 07:10:05;;;;;;;55.78;17.73;;;;;;;1.33;85.46;98770.75;4514590;31;33107;-85
2023/12/11 07:12:33;;;;;;;169.15;56.95;;;;;;;1.89;84.22;98769.62;4488596;31;33807;-85
2023/12/11 07:15:00;;;;;;;38.75;14.07;;;;;;;1.77;84.18;98790.47;4500381;31;33606;-85
2023/12/11 07:17:28;;;;;;;64.95;19.27;;;;;;;1.69;84.96;98796.94;4500185;31;34591;-85
2023/12/11 07:19:57;;;;;;;240.12;63.08;;;;;;;2.16;83.23;98810.81;4509104;31;33304;-84
2023/12/11 07:22:25;;;;;;;175.10;60.20;;;;;;;1.60;85.09;98819.56;4500766;31;34578;-85
2023/12/11 07:24:53;;;;;;;224.20;66.50;;;;;;;1.92;83.96;98805.56;4500104;31;35271;-85
2023/12/11 07:27:20;;;;;;;62.97;17.58;;;;;;;1.97;83.34;98785.28;4510002;31;33605;-85
2023/12/11 07:29:48;;;;;;;193.82;60.97;;;;;;;2.15;83.29;98786.03;4510458;31;34357;-85
2023/12/11 07:32:16;;;;;;;164.30;54.17;;;;;;;2.28;82.44;98782.28;4501028;31;33783;-85
2023/12/11 07:34:43;;;;;;;55.10;17.85;;;;;;;2.15;83.55;98812.47;4500901;31;33926;-84
2023/12/11 07:37:11;;;;;;;187.57;59.83;;;;;;;2.40;82.12;98814.31;4500014;31;33791;-85
2023/12/11 07:39:39;;;;;;;63.95;19.77;;;;;;;2.01;82.75;98808.50;4503449;31;33438;-85
2023/12/11 07:42:07;;;;;;;65.93;17.95;;;;;;;2.65;81.00;98805.03;4512459;31;33602;-85
2023/12/11 07:44:34;;;;;;;163.27;52.88;;;;;;;2.94;79.96;98795.88;4512286;31;33891;-85
2023/12/11 07:47:02;;;;;;;60.67;18.15;;;;;;;2.99;79.13;98781.56;4515886;31;33566;-85
2023/12/11 07:49:30;;;;;;;82.97;17.83;;;;;;;3.14;79.07;98786.34;4510285;31;33343;-84
2023/12/11 07:51:58;;;;;;;73.75;19.10;;;;;;;3.01;78.96;98790.19;4499778;31;33917;-85
2023/12/11 07:54:26;;;;;;;170.82;52.45;;;;;;;2.76;80.04;98788.38;4508819;31;33355;-84
2023/12/11 07:56:53;;;;;;;61.13;15.73;;;;;;;2.70;80.65;98780.50;4512431;31;34749;-85
2023/12/11 07:59:21;;;;;;;74.12;21.65;;;;;;;2.64;80.33;98762.34;4499972;31;33847;-85
2023/12/11 08:01:52;;;;;;;258.05;64.40;;;;;;;2.55;80.62;98775.66;4515793;31;33781;-85
2023/12/11 08:04:20;;;;;;;51.15;18.62;;;;;;;2.40;81.26;98782.75;4509317;31;32714;-85
2023/12/11 08:06:47;;;;;;;201.15;57.45;;;;;;;2.88;80.12;98781.19;4499559;31;33999;-85
2023/12/11 08:09:15;;;;;;;279.20;67.95;;;;;;;2.94;79.23;98783.09;4503807;31;33242;-85
2023/12/11 08:11:43;;;;;;;36.67;15.93;;;;;;;3.06;79.09;98762.16;4515945;31;34710;-85
2023/12/11 08:14:10;;;;;;;200.13;51.10;;;;;;;3.19;77.81;98727.63;4514386;31;33944;-85
2023/12/11 08:16:37;;;;;;;63.45;16.23;;;;;;;2.93;79.36;98737.81;4502368;31;33821;-85
2023/12/11 08:19:05;;;;;;;65.50;18.30;;;;;;;2.89;79.56;98734.28;4500601;31;33330;-85
2023/12/11 08:21:33;;;;;;;102.82;44.78;;;;;;;2.75;80.74;98735.47;4512380;31;34604;-85
2023/12/11 08:24:00;;;;;;;170.12;47.47;;;;;;;3.16;78.88;98724.12;4508576;31;34115;-85
2023/12/11 08:26:28;;;;;;;72.15;16.90;;;;;;;2.80;79.82;98703.19;4506346;31;33966;-86
2023/12/11 08:28:55;;;;;;;148.90;41.72;;;;;;;2.85;80.40;98690.59;4506515;31;34832;-85
2023/12/11 08:31:26;;;;;;;341.63;57.88;;;;;;;2.88;79.51;98680.47;4501479;31;34874;-85
2023/12/11 08:33:54;;;;;;;79.35;15.90;;;;;;;2.69;79.73;98678.94;4498226;31;34136;-86
2023/12/11 08:36:22;;;;;;;87.07;17.05;;;;;;;3.29;78.53;98663.94;4500176;31;33106;-85
2023/12/11 08:38:49;;;;;;;66.28;35.95;;;;;;;2.95;79.32;98671.28;4494271;31;33043;-85
2023/12/11 08:41:17;;;;;;;39.83;14.98;;;;;;;2.98;79.02;98667.16;4513063;31;34529;-84
2023/12/11 08:43:46;;;;;;;133.45;41.85;;;;;;;3.42;78.12;98675.47;4500301;31;33716;-85
2023/12/11 08:46:14;;;;;;;460.77;66.00;;;;;;;3.40;78.01;98682.22;4485750;31;32335;-85
2023/12/11 08:48:45;;;;;;;57.62;18.30;;;;;;;3.05;78.94;98687.03;4505340;31;33929;-88
2023/12/11 08:51:13;;;;;;;138.70;21.80;;;;;;;3.55;77.62;98679.28;4496846;31;33489;-85
2023/12/11 08:53:40;;;;;;;36.80;15.55;;;;;;;3.40;77.42;98692.47;4499337;31;32808;-85
2023/12/11 08:56:08;;;;;;;169.68;45.17;;;;;;;3.40;78.37;98705.28;4510945;31;34107;-85
2023/12/11 08:58:36;;;;;;;52.88;15.23;;;;;;;3.12;78.84;98717.16;4499460;31;34584;-85
2023/12/11 09:01:04;;;;;;;44.15;15.23;;;;;;;3.03;79.46;98721.97;4495295;31;34357;-86
2023/12/11 09:03:32;;;;;;;92.60;42.62;;;;;;;3.31;78.82;98718.66;4507166;31;34793;-88
2023/12/11 09:05:59;;;;;;;98.80;44.50;;;;;;;2.82;80.30;98721.19;4505054;31;33709;-86
2023/12/11 09:08:27;;;;;;;27.83;14.90;;;;;;;2.58;80.77;98721.19;4504244;31;33412;-86
2023/12/11 09:10:54;;;;;;;35.38;15.43;;;;;;;2.72;80.70;98699.50;4506261;31;33812;-85
2023/12/11 09:13:22;;;;;;;34.20;15.73;;;;;;;3.15;79.98;98689.09;4504806;31;35018;-85
2023/12/11 09:15:53;;;;;;;53.03;39.10;;;;;;;3.67;78.01;98682.25;4511697;31;34226;-85
2023/12/11 09:18:21;;;;;;;31.27;16.87;;;;;;;3.60;77.65;98693.16;4496401;31;33293;-89
2023/12/11 09:20:48;;;;;;;33.53;16.30;;;;;;;4.12;76.41;98689.66;4509170;31;33014;-86
2023/12/11 09:23:16;;;;;;;35.03;17.10;;;;;;;3.86;76.07;98683.72;4499778;31;34275;-86
2023/12/11 09:25:44;;;;;;;45.12;36.15;;;;;;;4.11;75.72;98695.59;4512033;31;33831;-88
2023/12/11 09:28:11;;;;;;;52.78;37.13;;;;;;;4.03;75.76;98699.63;4505244;31;33589;-86
2023/12/11 09:30:39;;;;;;;32.03;15.98;;;;;;;3.82;76.33;98693.00;4511518;31;33964;-86
2023/12/11 09:33:07;;;;;;;141.37;52.28;;;;;;;4.05;75.56;98685.16;4504831;31;34843;-85
2023/12/11 09:35:39;;;;;;;489.48;77.43;;;;;;;3.54;76.45;98667.31;4505192;31;34579;-91
2023/12/11 09:38:07;;;;;;;91.18;49.10;;;;;;;3.62;76.10;98679.53;4513464;31;33637;-86
2023/12/11 09:40:35;;;;;;;84.55;49.75;;;;;;;3.63;76.41;98685.53;4514492;31;34337;-86
2023/12/11 09:43:03;;;;;;;108.00;22.48;;;;;;;3.94;75.58;98676.25;4510713;31;34107;-86
2023/12/11 09:45:31;;;;;;;140.20;24.25;;;;;;;3.79;77.50;98674.06;4496331;31;34787;-86
2023/12/11 09:47:58;;;;;;;93.03;23.08;;;;;;;4.20;75.40;98670.22;4486305;31;33431;-85
2023/12/11 09:50:40;;;;;;;134.40;53.15;;;;;;;4.19;75.47;98673.63;4489721;31;33903;-86
2023/12/11 09:53:08;;;;;;;83.65;46.20;;;;;;;4.10;75.20;98674.22;4503631;31;34511;-86
2023/12/11 09:55:36;;;;;;;34.38;18.98;;;;;;;3.84;76.37;98681.09;4511170;31;33598;-86
2023/12/11 09:58:04;;;;;;;64.07;43.30;;;;;;;4.36;74.47;98677.56;4502804;31;34207;-91
2023/12/11 10:00:32;;;;;;;39.88;18.52;;;;;;;4.18;74.45;98664.19;4502735;31;33790;-86
2023/12/11 10:03:05;;;;;;;58.47;41.67;;;;;;;4.44;73.81;98666.66;4510261;31;34553;-86
2023/12/11 10:05:35;;;;;;;74.55;44.05;;;;;;;4.38;73.84;98667.34;4490507;31;33145;-85
2023/12/11 10:08:03;;;;;;;41.30;20.15;;;;;;;4.31;73.96;98673.97;4500189;31;34257;-87
2023/12/11 10:10:36;;;;;;;42.72;21.33;;;;;;;4.64;73.12;98673.22;4513646;31;33484;-86
2023/12/11 10:13:05;;;;;;;115.68;51.13;;;;;;;4.36;73.82;98667.31;4493602;31;34102;-86
2023/12/11 10:15:35;;;;;;;116.15;53.28;;;;;;;4.24;73.88;98655.78;4512736;31;33811;-86
2023/12/11 10:18:09;;;;;;;77.32;47.72;;;;;;;4.02;74.73;98659.44;4500282;31;33571;-85
2023/12/11 10:20:39;;;;;;;85.20;49.65;;;;;;;4.35;73.91;98647.56;4507078;31;33657;-86
2023/12/11 10:23:15;;;;;;;39.85;21.20;;;;;;;4.16;74.65;98660.69;4484515;31;34906;-88
2023/12/11 10:25:45;;;;;;;55.25;21.55;;;;;;;4.58;74.04;98675.59;4503060;31;34593;-86
2023/12/11 10:28:19;;;;;;;69.50;46.42;;;;;;;4.90;73.03;98660.22;4488295;31;33991;-86
2023/12/11 10:30:47;;;;;;;62.80;44.30;;;;;;;4.67;73.69;98662.19;4497627;31;33911;-86
2023/12/11 10:33:16;;;;;;;63.20;42.78;;;;;;;4.97;72.79;98651.87;4499756;31;33631;-84
2023/12/11 10:35:45;;;;;;;75.05;44.58;;;;;;;4.93;72.88;98644.91;4508389;31;33674;-84
2023/12/11 10:38:23;;;;;;;78.65;45.10;;;;;;;5.06;71.96;98627.28;4490704;31;34351;-84
2023/12/11 10:40:52;;;;;;;67.80;47.70;;;;;;;4.10;74.21;98622.06;4498548;31;33944;-86
2023/12/11 10:43:20;;;;;;;47.08;20.20;;;;;;;4.37;73.39;98612.56;4501055;31;33306;-84
2023/12/11 10:45:47;;;;;;;75.37;50.40;;;;;;;4.18;74.08;98597.47;4484108;31;34008;-84
2023/12/11 10:48:20;;;;;;;71.87;47.55;;;;;;;4.38;73.58;98596.34;4485304;31;33411;-86
2023/12/11 10:50:49;;;;;;;74.03;48.42;;;;;;;4.42;73.50;98589.59;4501825;31;33949;-87
2023/12/11 10:53:17;;;;;;;76.55;48.33;;;;;;;4.60;73.30;98594.38;4490662;31;33649;-84
2023/12/11 10:55:46;;;;;;;44.05;22.40;;;;;;;4.51;72.73;98601.81;4484031;31;33540;-86
2023/12/11 10:58:14;;;;;;;67.35;46.53;;;;;;;4.99;71.89;98609.09;4513818;31;33494;-85
2023/12/11 11:00:44;;;;;;;68.82;47.30;;;;;;;5.02;70.78;98606.59;4499819;31;33881;-86
2023/12/11 11:03:12;;;;;;;64.00;45.22;;;;;;;4.43;72.67;98629.81;4497907;31;33978;-86
2023/12/11 11:05:41;;;;;;;55.03;21.42;;;;;;;4.19;73.68;98632.56;4483750;31;34299;-86
2023/12/11 11:08:35;;;;;;;66.20;47.90;;;;;;;4.82;71.68;98621.50;4483808;31;33210;-85
2023/12/11 11:11:11;;;;;;;74.82;48.95;;;;;;;4.63;72.92;98615.00;4483848;31;34633;-86
2023/12/11 11:14:14;;;;;;;48.72;23.62;;;;;;;3.91;75.41;98615.50;4498152;31;34820;-89
2023/12/11 11:16:55;;;;;;;77.07;52.25;;;;;;;3.98;75.64;98598.56;4500489;31;34550;-86
2023/12/11 11:19:24;;;;;;;69.78;48.55;;;;;;;3.53;77.52;98591.25;4485460;31;34438;-86
2023/12/11 11:22:04;;;;;;;73.62;50.72;;;;;;;3.80;76.94;98579.28;4483861;31;34204;-86
2023/12/11 11:24:34;;;;;;;75.68;52.08;;;;;;;3.93;75.96;98584.75;4497838;31;34991;-86
2023/12/11 11:27:03;;;;;;;69.68;50.60;;;;;;;3.85;77.04;98577.72;4483798;31;33733;-86